ETD1226 OBBI-OKKK
Flight info
| Callsign | ETD1226 |
|---|---|
| Flight time | 0h 48m |
| Altitude | 24000 |
| Route | BHR A453 DEBTI |
| Aircraft | A346/H-SDE2E3FGHIJ3J4J5M1RWXY/LB1D1 |
Departure
| Time | 2026-05-04 17:10 |
|---|---|
| Airport | Bahrain International Airport (OBBI) |
Arrival
| Time | 2026-05-04 17:58 |
|---|---|
| Airport | Kuwait International Airport (OKKK) |
| Time | Latitude | Longitude | Altitude | Speed | Heading |
|---|---|---|---|---|---|
| 2026-05-04 16:37 | 26.26732 | 50.63222 | 28 ft | 0 kts | 213° |
| 2026-05-04 16:58 | 26.26750 | 50.63235 | 28 ft | 4 kts | 213° |
| 2026-05-04 16:59 | 26.26791 | 50.63265 | 27 ft | 4 kts | 228° |
| 2026-05-04 17:00 | 26.26777 | 50.63333 | 29 ft | 0 kts | 302° |
| 2026-05-04 17:02 | 26.26777 | 50.63332 | 29 ft | 1 kts | 302° |
| 2026-05-04 17:03 | 26.26787 | 50.63315 | 29 ft | 4 kts | 302° |
| 2026-05-04 17:03 | 26.26809 | 50.63276 | 29 ft | 7 kts | 302° |
| 2026-05-04 17:03 | 26.26915 | 50.63168 | 29 ft | 13 kts | 1° |
| 2026-05-04 17:04 | 26.26872 | 50.63376 | 28 ft | 20 kts | 122° |
| 2026-05-04 17:04 | 26.26700 | 50.63677 | 29 ft | 24 kts | 123° |
| 2026-05-04 17:05 | 26.26502 | 50.64020 | 29 ft | 28 kts | 123° |
| 2026-05-04 17:05 | 26.26271 | 50.64417 | 27 ft | 32 kts | 123° |
| 2026-05-04 17:06 | 26.26044 | 50.64809 | 29 ft | 14 kts | 122° |
| 2026-05-04 17:06 | 26.26021 | 50.64867 | 30 ft | 0 kts | 101° |
| 2026-05-04 17:07 | 26.26021 | 50.64879 | 30 ft | 3 kts | 89° |
| 2026-05-04 17:07 | 26.26094 | 50.64990 | 27 ft | 18 kts | 17° |
| 2026-05-04 17:08 | 26.26161 | 50.64956 | 27 ft | 11 kts | 302° |
| 2026-05-04 17:08 | 26.26200 | 50.64895 | 28 ft | 0 kts | 303° |
| 2026-05-04 17:09 | 26.26264 | 50.64783 | 27 ft | 51 kts | 302° |
| 2026-05-04 17:10 | 26.27166 | 50.63207 | 48 ft | 177 kts | 302° |
| 2026-05-04 17:10 | 26.30037 | 50.60899 | 2168 ft | 178 kts | 347° |
| 2026-05-04 17:11 | 26.31286 | 50.60539 | 2568 ft | 192 kts | 348° |
| 2026-05-04 17:11 | 26.32642 | 50.60170 | 2838 ft | 209 kts | 348° |
| 2026-05-04 17:11 | 26.35687 | 50.59368 | 3552 ft | 240 kts | 346° |
| 2026-05-04 17:12 | 26.37359 | 50.58855 | 3912 ft | 256 kts | 345° |
| 2026-05-04 17:12 | 26.40856 | 50.57750 | 5288 ft | 261 kts | 344° |
| 2026-05-04 17:13 | 26.46179 | 50.56077 | 7487 ft | 269 kts | 342° |
| 2026-05-04 17:14 | 26.51638 | 50.54362 | 9826 ft | 277 kts | 342° |
| 2026-05-04 17:14 | 26.53514 | 50.53771 | 10455 ft | 286 kts | 342° |
| 2026-05-04 17:14 | 26.56890 | 50.52703 | 11099 ft | 316 kts | 342° |
| 2026-05-04 17:15 | 26.59824 | 50.51783 | 11595 ft | 340 kts | 343° |
| 2026-05-04 17:15 | 26.64454 | 50.50334 | 12986 ft | 352 kts | 343° |
| 2026-05-04 17:16 | 26.69166 | 50.48640 | 14458 ft | 360 kts | 333° |
| 2026-05-04 17:16 | 26.75169 | 50.43402 | 16594 ft | 373 kts | 315° |
| 2026-05-04 17:17 | 26.76440 | 50.42039 | 17079 ft | 376 kts | 315° |
| 2026-05-04 17:17 | 26.82265 | 50.35835 | 18952 ft | 395 kts | 315° |
| 2026-05-04 17:18 | 26.84268 | 50.33711 | 19627 ft | 397 kts | 314° |
| 2026-05-04 17:18 | 26.88320 | 50.29414 | 20990 ft | 404 kts | 314° |
| 2026-05-04 17:19 | 26.92434 | 50.25050 | 22355 ft | 410 kts | 314° |
| 2026-05-04 17:19 | 26.96610 | 50.20615 | 23557 ft | 416 kts | 313° |
| 2026-05-04 17:20 | 27.00826 | 50.16127 | 23778 ft | 418 kts | 313° |
| 2026-05-04 17:20 | 27.04966 | 50.11558 | 23785 ft | 416 kts | 310° |
| 2026-05-04 17:20 | 27.06886 | 50.09130 | 23786 ft | 415 kts | 308° |
| 2026-05-04 17:21 | 27.10642 | 50.04204 | 23798 ft | 414 kts | 307° |
| 2026-05-04 17:21 | 27.14383 | 49.99275 | 23795 ft | 414 kts | 307° |
| 2026-05-04 17:22 | 27.16253 | 49.96811 | 23785 ft | 414 kts | 307° |
| 2026-05-04 17:22 | 27.18125 | 49.94342 | 23788 ft | 415 kts | 307° |
| 2026-05-04 17:23 | 27.23765 | 49.86909 | 23783 ft | 416 kts | 307° |
| 2026-05-04 17:23 | 27.25642 | 49.84432 | 23788 ft | 416 kts | 307° |
| 2026-05-04 17:23 | 27.29372 | 49.79508 | 23789 ft | 416 kts | 307° |
| 2026-05-04 17:24 | 27.31247 | 49.77031 | 23789 ft | 416 kts | 307° |
| 2026-05-04 17:24 | 27.36880 | 49.69579 | 23787 ft | 417 kts | 307° |
| 2026-05-04 17:25 | 27.38762 | 49.67087 | 23789 ft | 417 kts | 307° |
| 2026-05-04 17:25 | 27.42525 | 49.62102 | 23794 ft | 418 kts | 307° |
| 2026-05-04 17:26 | 27.46314 | 49.57131 | 23790 ft | 418 kts | 309° |
| 2026-05-04 17:26 | 27.52783 | 49.50457 | 23790 ft | 423 kts | 317° |
| 2026-05-04 17:27 | 27.57391 | 49.46334 | 23792 ft | 423 kts | 318° |
| 2026-05-04 17:27 | 27.62007 | 49.42206 | 23790 ft | 423 kts | 318° |
| 2026-05-04 17:28 | 27.66622 | 49.38068 | 23787 ft | 423 kts | 317° |
| 2026-05-04 17:29 | 27.73501 | 49.31889 | 23794 ft | 423 kts | 317° |
| 2026-05-04 17:29 | 27.80418 | 49.25667 | 23785 ft | 424 kts | 317° |
| 2026-05-04 17:30 | 27.87427 | 49.19536 | 23786 ft | 425 kts | 321° |
| 2026-05-04 17:31 | 27.92476 | 49.15996 | 23789 ft | 427 kts | 325° |
| 2026-05-04 17:31 | 28.00211 | 49.10938 | 23784 ft | 428 kts | 326° |
| 2026-05-04 17:32 | 28.05359 | 49.07563 | 23781 ft | 428 kts | 325° |
| 2026-05-04 17:33 | 28.13095 | 49.02482 | 23787 ft | 429 kts | 325° |
| 2026-05-04 17:33 | 28.15674 | 49.00784 | 23786 ft | 429 kts | 325° |
| 2026-05-04 17:34 | 28.23406 | 48.95689 | 23453 ft | 427 kts | 325° |
| 2026-05-04 17:34 | 28.25965 | 48.94000 | 23211 ft | 425 kts | 325° |
| 2026-05-04 17:35 | 28.33544 | 48.88992 | 22440 ft | 418 kts | 325° |
| 2026-05-04 17:35 | 28.38575 | 48.85658 | 21927 ft | 413 kts | 325° |
| 2026-05-04 17:35 | 28.41014 | 48.84042 | 21685 ft | 411 kts | 325° |
| 2026-05-04 17:36 | 28.43480 | 48.82408 | 21427 ft | 409 kts | 325° |
| 2026-05-04 17:36 | 28.45930 | 48.80784 | 21179 ft | 406 kts | 325° |
| 2026-05-04 17:36 | 28.48365 | 48.79168 | 20938 ft | 404 kts | 325° |
| 2026-05-04 17:36 | 28.50784 | 48.77562 | 20691 ft | 401 kts | 325° |
| 2026-05-04 17:37 | 28.53190 | 48.75963 | 20447 ft | 399 kts | 325° |
| 2026-05-04 17:37 | 28.55535 | 48.74300 | 20192 ft | 394 kts | 320° |
| 2026-05-04 17:37 | 28.57641 | 48.72342 | 19965 ft | 388 kts | 313° |
| 2026-05-04 17:37 | 28.59475 | 48.70111 | 19740 ft | 383 kts | 306° |
| 2026-05-04 17:38 | 28.61108 | 48.67724 | 19502 ft | 381 kts | 304° |
| 2026-05-04 17:38 | 28.62699 | 48.65320 | 19197 ft | 379 kts | 303° |
| 2026-05-04 17:38 | 28.64277 | 48.62928 | 18837 ft | 376 kts | 303° |
| 2026-05-04 17:38 | 28.65841 | 48.60565 | 18551 ft | 369 kts | 304° |
| 2026-05-04 17:39 | 28.68770 | 48.56162 | 18361 ft | 325 kts | 303° |
| 2026-05-04 17:39 | 28.70108 | 48.54149 | 18299 ft | 312 kts | 303° |
| 2026-05-04 17:39 | 28.71394 | 48.52210 | 18211 ft | 301 kts | 303° |
| 2026-05-04 17:40 | 28.72677 | 48.50370 | 18102 ft | 295 kts | 309° |
| 2026-05-04 17:40 | 28.74182 | 48.48789 | 17994 ft | 294 kts | 317° |
| 2026-05-04 17:40 | 28.75911 | 48.47488 | 17611 ft | 298 kts | 324° |
| 2026-05-04 17:40 | 28.77702 | 48.46358 | 17269 ft | 298 kts | 326° |
| 2026-05-04 17:41 | 28.79516 | 48.45244 | 16942 ft | 295 kts | 326° |
| 2026-05-04 17:41 | 28.81322 | 48.44135 | 16630 ft | 293 kts | 326° |
| 2026-05-04 17:41 | 28.83110 | 48.43035 | 16299 ft | 291 kts | 326° |
| 2026-05-04 17:41 | 28.84888 | 48.41936 | 15978 ft | 290 kts | 326° |
| 2026-05-04 17:42 | 28.86656 | 48.40839 | 15655 ft | 288 kts | 325° |
| 2026-05-04 17:42 | 28.88418 | 48.39745 | 15353 ft | 287 kts | 325° |
| 2026-05-04 17:42 | 28.90166 | 48.38659 | 15038 ft | 286 kts | 325° |
| 2026-05-04 17:42 | 28.91912 | 48.37574 | 14731 ft | 285 kts | 325° |
| 2026-05-04 17:43 | 28.93654 | 48.36490 | 14425 ft | 284 kts | 325° |
| 2026-05-04 17:43 | 28.95388 | 48.35410 | 14117 ft | 284 kts | 325° |
| 2026-05-04 17:43 | 28.97120 | 48.34331 | 13802 ft | 283 kts | 325° |
| 2026-05-04 17:43 | 28.98845 | 48.33256 | 13479 ft | 282 kts | 325° |
| 2026-05-04 17:44 | 29.00566 | 48.32181 | 13129 ft | 281 kts | 325° |
| 2026-05-04 17:44 | 29.02277 | 48.31113 | 12825 ft | 279 kts | 325° |
| 2026-05-04 17:44 | 29.03978 | 48.30050 | 12518 ft | 278 kts | 325° |
| 2026-05-04 17:44 | 29.05672 | 48.28993 | 12211 ft | 276 kts | 326° |
| 2026-05-04 17:45 | 29.07353 | 48.27943 | 11930 ft | 274 kts | 326° |
| 2026-05-04 17:45 | 29.09014 | 48.26909 | 11724 ft | 269 kts | 326° |
| 2026-05-04 17:45 | 29.10642 | 48.25893 | 11518 ft | 265 kts | 326° |
| 2026-05-04 17:45 | 29.12249 | 48.24889 | 11295 ft | 261 kts | 326° |
| 2026-05-04 17:46 | 29.13837 | 48.23898 | 11068 ft | 258 kts | 326° |
| 2026-05-04 17:46 | 29.15395 | 48.22924 | 10987 ft | 253 kts | 326° |
| 2026-05-04 17:46 | 29.16940 | 48.21957 | 10565 ft | 256 kts | 326° |
| 2026-05-04 17:46 | 29.18525 | 48.20959 | 10009 ft | 259 kts | 327° |
| 2026-05-04 17:47 | 29.20086 | 48.19980 | 9666 ft | 261 kts | 327° |
| 2026-05-04 17:47 | 29.21720 | 48.18956 | 9186 ft | 266 kts | 328° |
| 2026-05-04 17:47 | 29.23354 | 48.17932 | 8763 ft | 269 kts | 328° |
| 2026-05-04 17:47 | 29.24978 | 48.16915 | 8391 ft | 269 kts | 328° |
| 2026-05-04 17:48 | 29.26645 | 48.15872 | 8015 ft | 269 kts | 329° |
| 2026-05-04 17:48 | 29.28268 | 48.14855 | 7656 ft | 269 kts | 329° |
| 2026-05-04 17:48 | 29.29907 | 48.13829 | 7293 ft | 269 kts | 329° |
| 2026-05-04 17:48 | 29.31546 | 48.12804 | 6981 ft | 266 kts | 329° |
| 2026-05-04 17:49 | 29.33165 | 48.11790 | 6719 ft | 263 kts | 329° |
| 2026-05-04 17:49 | 29.34755 | 48.10797 | 6477 ft | 259 kts | 329° |
| 2026-05-04 17:49 | 29.36339 | 48.09817 | 6002 ft | 259 kts | 329° |
| 2026-05-04 17:49 | 29.37913 | 48.08836 | 5510 ft | 255 kts | 330° |
| 2026-05-04 17:50 | 29.39447 | 48.07867 | 5111 ft | 247 kts | 329° |
| 2026-05-04 17:50 | 29.40931 | 48.06922 | 4738 ft | 242 kts | 329° |
| 2026-05-04 17:50 | 29.42390 | 48.05990 | 4351 ft | 240 kts | 329° |
| 2026-05-04 17:50 | 29.43835 | 48.05057 | 3942 ft | 237 kts | 330° |
| 2026-05-04 17:51 | 29.45259 | 48.04121 | 3548 ft | 235 kts | 329° |
| 2026-05-04 17:51 | 29.46668 | 48.03190 | 3143 ft | 233 kts | 330° |
| 2026-05-04 17:51 | 29.47937 | 48.02045 | 2711 ft | 232 kts | 302° |
| 2026-05-04 17:51 | 29.48472 | 48.00347 | 2495 ft | 228 kts | 266° |
| 2026-05-04 17:52 | 29.48172 | 47.98576 | 2573 ft | 227 kts | 248° |
| 2026-05-04 17:52 | 29.47596 | 47.96887 | 2527 ft | 227 kts | 244° |
| 2026-05-04 17:52 | 29.46970 | 47.95222 | 2511 ft | 227 kts | 244° |
| 2026-05-04 17:52 | 29.46335 | 47.93563 | 2496 ft | 227 kts | 244° |
| 2026-05-04 17:53 | 29.45639 | 47.91973 | 2473 ft | 225 kts | 228° |
| 2026-05-04 17:53 | 29.44502 | 47.90723 | 2494 ft | 223 kts | 216° |
| 2026-05-04 17:53 | 29.43273 | 47.89644 | 2490 ft | 222 kts | 214° |
| 2026-05-04 17:53 | 29.41983 | 47.88680 | 2485 ft | 220 kts | 202° |
| 2026-05-04 17:54 | 29.40550 | 47.88079 | 2491 ft | 219 kts | 195° |
| 2026-05-04 17:54 | 29.39087 | 47.87573 | 2494 ft | 221 kts | 194° |
| 2026-05-04 17:54 | 29.37604 | 47.87088 | 2495 ft | 221 kts | 191° |
| 2026-05-04 17:54 | 29.36137 | 47.87104 | 2467 ft | 209 kts | 163° |
| 2026-05-04 17:55 | 29.34845 | 47.87673 | 2465 ft | 190 kts | 153° |
| 2026-05-04 17:55 | 29.33714 | 47.88326 | 2364 ft | 176 kts | 152° |
| 2026-05-04 17:55 | 29.32644 | 47.88944 | 2185 ft | 168 kts | 153° |
| 2026-05-04 17:55 | 29.31617 | 47.89512 | 1970 ft | 160 kts | 154° |
| 2026-05-04 17:56 | 29.30610 | 47.90052 | 1754 ft | 159 kts | 154° |
| 2026-05-04 17:56 | 29.29606 | 47.90584 | 1555 ft | 158 kts | 154° |
| 2026-05-04 17:56 | 29.28614 | 47.91110 | 1349 ft | 154 kts | 154° |
| 2026-05-04 17:56 | 29.27652 | 47.91621 | 1155 ft | 151 kts | 154° |
| 2026-05-04 17:57 | 29.26701 | 47.92126 | 988 ft | 150 kts | 153° |
| 2026-05-04 17:57 | 29.25753 | 47.92631 | 816 ft | 149 kts | 153° |
| 2026-05-04 17:57 | 29.24811 | 47.93134 | 648 ft | 149 kts | 153° |
| 2026-05-04 17:57 | 29.23871 | 47.93635 | 423 ft | 148 kts | 153° |
| 2026-05-04 17:58 | 29.22943 | 47.94135 | 291 ft | 147 kts | 154° |
| 2026-05-04 17:58 | 29.22072 | 47.94603 | 224 ft | 114 kts | 155° |
| 2026-05-04 17:58 | 29.21518 | 47.94894 | 227 ft | 65 kts | 151° |
| 2026-05-04 17:58 | 29.21264 | 47.95030 | 228 ft | 25 kts | 155° |
| 2026-05-04 17:59 | 29.20996 | 47.95168 | 224 ft | 45 kts | 156° |
| 2026-05-04 17:59 | 29.20724 | 47.95329 | 229 ft | 42 kts | 146° |
| 2026-05-04 17:59 | 29.20672 | 47.95575 | 226 ft | 22 kts | 328° |
| 2026-05-04 18:00 | 29.20823 | 47.95513 | 223 ft | 24 kts | 339° |
| 2026-05-04 18:00 | 29.20983 | 47.95431 | 229 ft | 26 kts | 336° |
| 2026-05-04 18:00 | 29.21163 | 47.95336 | 223 ft | 28 kts | 332° |
| 2026-05-04 18:00 | 29.21339 | 47.95234 | 223 ft | 27 kts | 334° |
| 2026-05-04 18:01 | 29.21509 | 47.95153 | 227 ft | 27 kts | 336° |
| 2026-05-04 18:01 | 29.21683 | 47.95057 | 224 ft | 28 kts | 334° |
| 2026-05-04 18:01 | 29.21871 | 47.94976 | 213 ft | 28 kts | 352° |
| 2026-05-04 18:02 | 29.22114 | 47.95375 | 172 ft | 34 kts | 65° |
| 2026-05-04 18:02 | 29.22220 | 47.95640 | 170 ft | 39 kts | 65° |
| 2026-05-04 18:02 | 29.22333 | 47.95914 | 169 ft | 37 kts | 65° |
| 2026-05-04 18:02 | 29.22442 | 47.96187 | 169 ft | 38 kts | 65° |
| 2026-05-04 18:03 | 29.22555 | 47.96455 | 168 ft | 38 kts | 64° |
| 2026-05-04 18:03 | 29.22728 | 47.96584 | 169 ft | 31 kts | 327° |
| 2026-05-04 18:03 | 29.22919 | 47.96503 | 169 ft | 16 kts | 352° |
| 2026-05-04 18:03 | 29.23002 | 47.96517 | 171 ft | 7 kts | 16° |
| 2026-05-04 18:04 | 29.23012 | 47.96522 | 171 ft | 0 kts | 26° |
| 2026-05-04 18:04 | 29.23015 | 47.96524 | 171 ft | 1 kts | 35° |
| 2026-05-04 18:04 | 29.23076 | 47.96671 | 171 ft | 19 kts | 65° |
| 2026-05-04 18:05 | 29.23119 | 47.96773 | 173 ft | 12 kts | 64° |
| 2026-05-04 18:05 | 29.23131 | 47.96801 | 173 ft | 0 kts | 64° |
| 2026-05-04 18:05 | 29.23132 | 47.96801 | 173 ft | 0 kts | 64° |
| 2026-05-04 18:05 | 29.23133 | 47.96804 | 173 ft | 2 kts | 64° |
| 2026-05-04 18:06 | 29.23248 | 47.96830 | 173 ft | 13 kts | 336° |
| 2026-05-04 18:06 | 29.23342 | 47.96779 | 173 ft | 12 kts | 335° |
| 2026-05-04 18:06 | 29.23434 | 47.96730 | 172 ft | 17 kts | 335° |
| 2026-05-04 18:07 | 29.23554 | 47.96667 | 171 ft | 19 kts | 335° |
| 2026-05-04 18:07 | 29.23642 | 47.96643 | 173 ft | 12 kts | 25° |
| 2026-05-04 18:07 | 29.23690 | 47.96733 | 174 ft | 15 kts | 64° |
| 2026-05-04 18:07 | 29.23723 | 47.96809 | 174 ft | 17 kts | 64° |
| 2026-05-04 18:08 | 29.23774 | 47.96927 | 175 ft | 14 kts | 64° |
| 2026-05-04 18:08 | 29.23788 | 47.96950 | 175 ft | 3 kts | 41° |
| 2026-05-04 18:08 | 29.23817 | 47.96974 | 175 ft | 7 kts | 28° |
| 2026-05-04 18:08 | 29.23864 | 47.97000 | 175 ft | 0 kts | 25° |
| 2026-05-04 18:09 | 29.23887 | 47.97012 | 175 ft | 0 kts | 25° |